<?xml version="1.0" encoding="UTF-8" standalone="no" ?>
<gpx xmlns="http://www.topografix.com/GPX/1/1" xmlns:xsi="http://www.w3.org/2001/XMLSchema-instance" xsi:schemaLocation="http://www.topografix.com/GPX/1/1 http://www.topografix.com/GPX/1/1/gpx.xsd" version="1.1" creator="VisuGPX - https://www.visugpx.com">
  <metadata>
    <name>De Meillerie à Salvigny</name>
    <desc><![CDATA[Randonnée en Haute-Savoie]]></desc>
  </metadata>
  <trk>
    <name><![CDATA[ACTIVE LOG: 30 JUL 2015 13:54]]></name>
    <trkseg>
      <trkpt lat="46.09482" lon="6.84608">
        <ele>1029.71</ele>
        <time>2015-07-30T11:58:42Z</time>
      </trkpt>
      <trkpt lat="46.09452" lon="6.84593">
        <ele>1032.11</ele>
        <time>2015-07-30T11:59:47Z</time>
      </trkpt>
      <trkpt lat="46.09399" lon="6.84612">
        <ele>1034.52</ele>
        <time>2015-07-30T12:00:52Z</time>
      </trkpt>
      <trkpt lat="46.09348" lon="6.84686">
        <ele>1040.28</ele>
        <time>2015-07-30T12:01:57Z</time>
      </trkpt>
      <trkpt lat="46.09321" lon="6.84653">
        <ele>1020.1</ele>
        <time>2015-07-30T12:03:02Z</time>
      </trkpt>
      <trkpt lat="46.0927" lon="6.84628">
        <ele>1023.94</ele>
        <time>2015-07-30T12:04:07Z</time>
      </trkpt>
      <trkpt lat="46.09222" lon="6.84569">
        <ele>1030.67</ele>
        <time>2015-07-30T12:05:12Z</time>
      </trkpt>
      <trkpt lat="46.09182" lon="6.84472">
        <ele>1035.48</ele>
        <time>2015-07-30T12:06:17Z</time>
      </trkpt>
      <trkpt lat="46.09155" lon="6.8442">
        <ele>1038.36</ele>
        <time>2015-07-30T12:07:22Z</time>
      </trkpt>
      <trkpt lat="46.09111" lon="6.84343">
        <ele>1039.32</ele>
        <time>2015-07-30T12:08:27Z</time>
      </trkpt>
      <trkpt lat="46.09062" lon="6.84286">
        <ele>1040.28</ele>
        <time>2015-07-30T12:09:32Z</time>
      </trkpt>
      <trkpt lat="46.09019" lon="6.84249">
        <ele>1012.41</ele>
        <time>2015-07-30T12:10:36Z</time>
      </trkpt>
      <trkpt lat="46.09008" lon="6.84245">
        <ele>1011.44</ele>
        <time>2015-07-30T12:11:42Z</time>
      </trkpt>
      <trkpt lat="46.08936" lon="6.84238">
        <ele>1013.37</ele>
        <time>2015-07-30T12:12:47Z</time>
      </trkpt>
      <trkpt lat="46.08857" lon="6.84213">
        <ele>1014.33</ele>
        <time>2015-07-30T12:13:52Z</time>
      </trkpt>
      <trkpt lat="46.08817" lon="6.84174">
        <ele>1016.25</ele>
        <time>2015-07-30T12:14:57Z</time>
      </trkpt>
      <trkpt lat="46.08756" lon="6.84169">
        <ele>1017.69</ele>
        <time>2015-07-30T12:16:02Z</time>
      </trkpt>
      <trkpt lat="46.08688" lon="6.84151">
        <ele>1016.25</ele>
        <time>2015-07-30T12:17:07Z</time>
      </trkpt>
      <trkpt lat="46.08605" lon="6.84134">
        <ele>1014.33</ele>
        <time>2015-07-30T12:18:12Z</time>
      </trkpt>
      <trkpt lat="46.0853" lon="6.84146">
        <ele>1007.6</ele>
        <time>2015-07-30T12:19:17Z</time>
      </trkpt>
      <trkpt lat="46.08461" lon="6.84126">
        <ele>1001.83</ele>
        <time>2015-07-30T12:20:22Z</time>
      </trkpt>
      <trkpt lat="46.08436" lon="6.84119">
        <ele>997.51</ele>
        <time>2015-07-30T12:21:27Z</time>
      </trkpt>
      <trkpt lat="46.08374" lon="6.84126">
        <ele>993.66</ele>
        <time>2015-07-30T12:22:32Z</time>
      </trkpt>
      <trkpt lat="46.08315" lon="6.84146">
        <ele>988.85</ele>
        <time>2015-07-30T12:23:37Z</time>
      </trkpt>
      <trkpt lat="46.08265" lon="6.8418">
        <ele>987.41</ele>
        <time>2015-07-30T12:24:42Z</time>
      </trkpt>
      <trkpt lat="46.08216" lon="6.84242">
        <ele>993.66</ele>
        <time>2015-07-30T12:25:47Z</time>
      </trkpt>
      <trkpt lat="46.08161" lon="6.84288">
        <ele>1000.87</ele>
        <time>2015-07-30T12:26:52Z</time>
      </trkpt>
      <trkpt lat="46.08099" lon="6.84342">
        <ele>998.95</ele>
        <time>2015-07-30T12:27:57Z</time>
      </trkpt>
      <trkpt lat="46.08045" lon="6.84392">
        <ele>999.91</ele>
        <time>2015-07-30T12:29:02Z</time>
      </trkpt>
      <trkpt lat="46.07993" lon="6.84467">
        <ele>1006.64</ele>
        <time>2015-07-30T12:30:07Z</time>
      </trkpt>
      <trkpt lat="46.07932" lon="6.84518">
        <ele>1005.68</ele>
        <time>2015-07-30T12:31:12Z</time>
      </trkpt>
      <trkpt lat="46.07868" lon="6.84564">
        <ele>996.06</ele>
        <time>2015-07-30T12:32:17Z</time>
      </trkpt>
      <trkpt lat="46.07841" lon="6.84484">
        <ele>986.93</ele>
        <time>2015-07-30T12:33:22Z</time>
      </trkpt>
      <trkpt lat="46.07838" lon="6.84449">
        <ele>984.53</ele>
        <time>2015-07-30T12:34:27Z</time>
      </trkpt>
      <trkpt lat="46.07796" lon="6.8443">
        <ele>977.32</ele>
        <time>2015-07-30T12:35:32Z</time>
      </trkpt>
      <trkpt lat="46.07756" lon="6.84369">
        <ele>969.63</ele>
        <time>2015-07-30T12:36:37Z</time>
      </trkpt>
      <trkpt lat="46.0773" lon="6.84283">
        <ele>962.42</ele>
        <time>2015-07-30T12:37:42Z</time>
      </trkpt>
      <trkpt lat="46.07732" lon="6.84179">
        <ele>957.61</ele>
        <time>2015-07-30T12:38:47Z</time>
      </trkpt>
      <trkpt lat="46.07725" lon="6.84097">
        <ele>954.73</ele>
        <time>2015-07-30T12:39:52Z</time>
      </trkpt>
      <trkpt lat="46.07727" lon="6.84029">
        <ele>955.69</ele>
        <time>2015-07-30T12:40:57Z</time>
      </trkpt>
      <trkpt lat="46.07735" lon="6.83944">
        <ele>947.52</ele>
        <time>2015-07-30T12:42:02Z</time>
      </trkpt>
      <trkpt lat="46.07765" lon="6.83863">
        <ele>940.79</ele>
        <time>2015-07-30T12:43:07Z</time>
      </trkpt>
      <trkpt lat="46.07746" lon="6.83841">
        <ele>938.38</ele>
        <time>2015-07-30T12:44:12Z</time>
      </trkpt>
      <trkpt lat="46.0776" lon="6.8384">
        <ele>938.38</ele>
        <time>2015-07-30T12:45:17Z</time>
      </trkpt>
      <trkpt lat="46.07803" lon="6.8385">
        <ele>944.63</ele>
        <time>2015-07-30T12:46:22Z</time>
      </trkpt>
      <trkpt lat="46.07827" lon="6.83887">
        <ele>949.44</ele>
        <time>2015-07-30T12:47:27Z</time>
      </trkpt>
      <trkpt lat="46.07837" lon="6.83872">
        <ele>948.48</ele>
        <time>2015-07-30T12:48:32Z</time>
      </trkpt>
      <trkpt lat="46.07839" lon="6.83777">
        <ele>942.71</ele>
        <time>2015-07-30T12:49:37Z</time>
      </trkpt>
      <trkpt lat="46.07867" lon="6.83704">
        <ele>935.5</ele>
        <time>2015-07-30T12:50:42Z</time>
      </trkpt>
      <trkpt lat="46.07839" lon="6.83661">
        <ele>941.75</ele>
        <time>2015-07-30T12:51:47Z</time>
      </trkpt>
      <trkpt lat="46.07841" lon="6.83585">
        <ele>953.28</ele>
        <time>2015-07-30T12:52:52Z</time>
      </trkpt>
      <trkpt lat="46.07883" lon="6.83546">
        <ele>964.82</ele>
        <time>2015-07-30T12:53:57Z</time>
      </trkpt>
      <trkpt lat="46.07932" lon="6.83561">
        <ele>971.07</ele>
        <time>2015-07-30T12:55:02Z</time>
      </trkpt>
      <trkpt lat="46.07919" lon="6.83568">
        <ele>971.55</ele>
        <time>2015-07-30T12:56:07Z</time>
      </trkpt>
      <trkpt lat="46.07919" lon="6.83572">
        <ele>972.03</ele>
        <time>2015-07-30T12:57:12Z</time>
      </trkpt>
      <trkpt lat="46.07921" lon="6.83572">
        <ele>970.59</ele>
        <time>2015-07-30T12:58:17Z</time>
      </trkpt>
      <trkpt lat="46.07885" lon="6.8356">
        <ele>966.74</ele>
        <time>2015-07-30T12:59:22Z</time>
      </trkpt>
      <trkpt lat="46.07833" lon="6.83556">
        <ele>960.98</ele>
        <time>2015-07-30T13:00:27Z</time>
      </trkpt>
      <trkpt lat="46.07783" lon="6.83495">
        <ele>952.8</ele>
        <time>2015-07-30T13:01:32Z</time>
      </trkpt>
      <trkpt lat="46.07725" lon="6.83429">
        <ele>947.04</ele>
        <time>2015-07-30T13:02:37Z</time>
      </trkpt>
      <trkpt lat="46.07691" lon="6.83354">
        <ele>938.38</ele>
        <time>2015-07-30T13:03:42Z</time>
      </trkpt>
      <trkpt lat="46.07653" lon="6.83284">
        <ele>927.81</ele>
        <time>2015-07-30T13:04:47Z</time>
      </trkpt>
      <trkpt lat="46.07634" lon="6.8321">
        <ele>915.31</ele>
        <time>2015-07-30T13:05:52Z</time>
      </trkpt>
      <trkpt lat="46.07565" lon="6.83208">
        <ele>908.1</ele>
        <time>2015-07-30T13:06:57Z</time>
      </trkpt>
      <trkpt lat="46.07537" lon="6.83152">
        <ele>908.58</ele>
        <time>2015-07-30T13:08:02Z</time>
      </trkpt>
      <trkpt lat="46.07537" lon="6.8305">
        <ele>906.66</ele>
        <time>2015-07-30T13:09:07Z</time>
      </trkpt>
      <trkpt lat="46.07529" lon="6.82951">
        <ele>903.3</ele>
        <time>2015-07-30T13:10:12Z</time>
      </trkpt>
      <trkpt lat="46.07503" lon="6.82856">
        <ele>899.93</ele>
        <time>2015-07-30T13:11:17Z</time>
      </trkpt>
      <trkpt lat="46.07469" lon="6.82763">
        <ele>896.09</ele>
        <time>2015-07-30T13:12:22Z</time>
      </trkpt>
      <trkpt lat="46.07459" lon="6.82693">
        <ele>892.72</ele>
        <time>2015-07-30T13:13:27Z</time>
      </trkpt>
      <trkpt lat="46.07445" lon="6.82595">
        <ele>889.36</ele>
        <time>2015-07-30T13:14:32Z</time>
      </trkpt>
      <trkpt lat="46.07399" lon="6.82504">
        <ele>885.99</ele>
        <time>2015-07-30T13:15:37Z</time>
      </trkpt>
      <trkpt lat="46.07354" lon="6.82437">
        <ele>881.67</ele>
        <time>2015-07-30T13:16:42Z</time>
      </trkpt>
      <trkpt lat="46.07346" lon="6.82335">
        <ele>874.94</ele>
        <time>2015-07-30T13:17:47Z</time>
      </trkpt>
      <trkpt lat="46.07356" lon="6.82211">
        <ele>873.5</ele>
        <time>2015-07-30T13:18:52Z</time>
      </trkpt>
      <trkpt lat="46.07363" lon="6.82102">
        <ele>870.13</ele>
        <time>2015-07-30T13:19:57Z</time>
      </trkpt>
      <trkpt lat="46.07244" lon="6.81819">
        <ele>868.21</ele>
        <time>2015-07-30T13:21:02Z</time>
      </trkpt>
      <trkpt lat="46.07135" lon="6.81499">
        <ele>863.88</ele>
        <time>2015-07-30T13:21:23Z</time>
      </trkpt>
    </trkseg>
  </trk>
</gpx>